• Join FlightAware (Why Join?)
  • Login
  • US Flag 
07:07AM EDT


 

Airport Tracker/Info


-or-


 

Live Flight TrackerFlight Track Log ✈ N577XW ✈ 21-Apr-2013 ✈ KTUL - KBED

Flight Track Log - Related Links

Times and Time Zones

All times are in EDT time to prevent confusion due to time zone crossing. See the N577XW flight status page for this flight to view local times or setup timezone preferences in your user account.

Time Position Orientation Groundspeed Altitude Reporting Facility
EDT Latitude Longitude Course Direction KTS MPH feet Rate Location/Type
11:46AM 36.1961 -95.8736 87° East 175 201 1,200  Level Kansas City Center
11:46AM 36.1975 -95.8422 87° East 182 209 2,200 2,280 Climbing Kansas City Center
11:47AM 36.2292 -95.7708 61° Northeast 267 307 4,500 2,040 Climbing Kansas City Center
11:48AM 36.2400 -95.7525 54° Northeast 255 293 5,100 2,580 Climbing Kansas City Center
11:49AM 36.2847 -95.6486 62° Northeast 279 321 8,200 2,760 Climbing Kansas City Center
11:50AM 36.3156 -95.5553 68° East 290 334 10,800 2,220 Climbing Kansas City Center
11:51AM 36.3419 -95.4553 72° East 305 351 12,800 1,800 Climbing Kansas City Center
11:52AM 36.3708 -95.3500 71° East 332 382 14,500 1,860 Climbing Kansas City Center
11:53AM 36.4053 -95.2278 71° East 340 391 16,700 1,800 Climbing Kansas City Center
11:54AM 36.4356 -95.1192 71° East 335 386 18,400 1,440 Climbing Kansas City Center
11:55AM 36.4669 -94.9997 72° East 336 387 19,800 1,320 Climbing Kansas City Center
11:56AM 36.4997 -94.8831 71° East 350 403 21,100 1,200 Climbing Kansas City Center
11:57AM 36.5336 -94.7606 71° East 366 421 22,400 1,260 Climbing Kansas City Center
11:58AM 36.5675 -94.6344 71° East 379 436 23,700 1,200 Climbing Kansas City Center
11:59AM 36.6039 -94.5047 71° East 391 450 24,900 1,200 Climbing Kansas City Center
12:00PM 36.6381 -94.3739 72° East 396 456 26,200 1,200 Climbing Kansas City Center
12:01PM 36.6750 -94.2428 71° East 399 459 27,500 1,320 Climbing Kansas City Center
12:02PM 36.7153 -94.0858 72° East 397 457 29,000 1,320 Climbing Kansas City Center
12:03PM 36.7511 -93.9558 71° East 396 456 30,300 1,200 Climbing Kansas City Center
12:04PM 36.7858 -93.8278 71° East 391 450 31,500 1,200 Climbing Kansas City Center
12:05PM 36.8197 -93.6978 72° East 388 447 32,800 1,200 Climbing Kansas City Center
12:06PM 36.8525 -93.5708 72° East 386 444 34,000 780 Climbing Kansas City Center
12:07PM 36.8869 -93.4439 71° East 388 447 34,500 420 Climbing Kansas City Center
12:08PM 36.9228 -93.3139 71° East 390 449 35,000 240 Climbing Kansas City Center
12:09PM 36.9581 -93.1775 72° East 399 459 35,000  Level Kansas City Center
12:10PM 37.0025 -93.0064 72° East 415 478 35,000 240 Level Kansas City Center
12:11PM 37.0383 -92.8622 73° East 425 489 35,500 540 Climbing Kansas City Center
12:12PM 37.0739 -92.7194 73° East 429 494 36,200 660 Climbing Kansas City Center
12:14PM 37.1081 -92.5811 73° East 424 488 36,900 540 Climbing Kansas City Center
12:15PM 37.1425 -92.4450 72° East 419 482 37,400 420 Climbing Kansas City Center
12:16PM 37.1761 -92.3097 73° East 414 476 37,800 420 Climbing Kansas City Center
12:17PM 37.2097 -92.1739 73° East 411 473 38,300 480 Climbing Kansas City Center
12:18PM 37.2517 -92.0078 72° East 414 476 38,800 300 Climbing Kansas City Center
12:19PM 37.2836 -91.8742 73° East 405 466 39,000 60 Climbing Kansas City Center
12:20PM 37.3186 -91.7361 72° East 411 473 39,000  Level Kansas City Center
12:21PM 37.3522 -91.5978 73° East 413 475 39,000  Level Kansas City Center
12:22PM 37.3861 -91.4553 73° East 422 486 39,000  Level Kansas City Center
12:23PM 37.4214 -91.3131 73° East 425 489 39,000  Level Kansas City Center
12:24PM 37.4553 -91.1697 73° East 427 491 39,000  Level Kansas City Center
12:25PM 37.4969 -90.9972 73° East 428 493 39,000  Level Kansas City Center
12:26PM 37.5303 -90.8519 74° East 431 496 39,000  Level Kansas City Center
12:27PM 37.5608 -90.7231 73° East 431 496 39,000  Level Kansas City Center
12:28PM 37.6172 -90.5897 62° Northeast 433 498 39,000  Level Kansas City Center
12:29PM 37.6950 -90.4400 57° Northeast 429 494 39,000  Level Kansas City Center
12:30PM 37.7544 -90.3078 60° Northeast 432 497 39,000  Level Kansas City Center
12:31PM 37.8161 -90.1775 59° Northeast 434 499 39,000  Level Kansas City Center
12:32PM 37.8858 -90.0272 60° Northeast 435 501 39,000  Level Kansas City Center
12:33PM 37.9469 -89.8981 59° Northeast 432 497 39,000  Level Kansas City Center
12:34PM 38.0081 -89.7667 59° Northeast 432 497 39,000  Level Kansas City Center
12:35PM 38.0744 -89.6253 59° Northeast 434 499 39,000  Level Kansas City Center
12:36PM 38.1356 -89.4914 60° Northeast 437 503 39,000  Level Kansas City Center
12:37PM 38.2006 -89.3500 60° Northeast 436 502 39,000  Level Kansas City Center
12:38PM 38.2611 -89.2167 60° Northeast 436 502 39,000  Level Kansas City Center
12:39PM 38.3264 -89.0725 60° Northeast 438 504 39,000  Level Kansas City Center
12:40PM 38.3883 -88.9367 60° Northeast 441 507 39,000  Level Kansas City Center
12:41PM 38.4550 -88.7900 60° Northeast 445 512 39,000  Level Kansas City Center
12:42PM 38.5111 -88.6642 60° Northeast 444 511 39,000  Level Kansas City Center
12:43PM 38.5703 -88.5350 60° Northeast 447 514 39,000  Level Kansas City Center
12:44PM 38.6456 -88.3678 60° Northeast 448 516 39,000  Level Kansas City Center
12:45PM 38.7081 -88.2283 60° Northeast 448 516 39,000  Level Kansas City Center
12:46PM 38.7697 -88.0883 61° Northeast 448 516 39,000  Level Kansas City Center
12:48PM 38.8297 -87.9475 61° Northeast 446 513 39,000  Level Kansas City Center
12:48PM 38.8903 -87.8094 61° Northeast 448 516 39,000  Level Indianapolis Center
12:49PM 38.9525 -87.6669 61° Northeast 450 518 39,000  Level Indianapolis Center
12:51PM 39.0144 -87.5261 60° Northeast 450 518 39,000  Level Indianapolis Center
12:52PM 39.0744 -87.3842 61° Northeast 449 517 39,000  Level Indianapolis Center
12:53PM 39.1356 -87.2442 61° Northeast 447 514 39,000  Level Indianapolis Center
12:54PM 39.1961 -87.1022 61° Northeast 448 516 39,000  Level Indianapolis Center
12:55PM 39.2558 -86.9614 61° Northeast 446 513 39,000  Level Indianapolis Center
12:56PM 39.3167 -86.8194 61° Northeast 447 514 39,000  Level Indianapolis Center
12:57PM 39.3769 -86.6767 61° Northeast 448 516 39,000  Level Indianapolis Center
12:58PM 39.4486 -86.5042 62° Northeast 451 519 39,000  Level Indianapolis Center
12:59PM 39.5094 -86.3625 61° Northeast 450 518 39,000  Level Indianapolis Center
01:00PM 39.5681 -86.2172 62° Northeast 451 519 39,000  Level Indianapolis Center
01:01PM 39.6289 -86.0739 61° Northeast 451 519 39,000  Level Indianapolis Center
01:02PM 39.6883 -85.9283 62° Northeast 453 521 39,000  Level Indianapolis Center
01:03PM 39.7478 -85.7828 62° Northeast 451 519 39,000  Level Indianapolis Center
01:04PM 39.8081 -85.6372 62° Northeast 453 521 39,000  Level Indianapolis Center
01:05PM 39.8686 -85.4931 61° Northeast 450 518 39,000  Level Indianapolis Center
01:06PM 39.9369 -85.3244 62° Northeast 450 518 39,000  Level Indianapolis Center
01:07PM 39.9931 -85.1783 63° Northeast 448 516 39,000  Level Indianapolis Center
01:08PM 40.0514 -85.0328 62° Northeast 449 517 39,000  Level Indianapolis Center
01:09PM 40.1094 -84.8869 62° Northeast 448 516 39,000  Level Indianapolis Center
01:10PM 40.1686 -84.7411 62° Northeast 451 519 39,000  Level Indianapolis Center
01:11PM 40.2253 -84.5933 63° Northeast 449 517 39,000  Level Indianapolis Center
01:12PM 40.2853 -84.4467 62° Northeast 453 521 39,000  Level Indianapolis Center
01:13PM 40.3417 -84.2983 63° Northeast 451 519 39,000  Level Indianapolis Center
01:14PM 40.3997 -84.1514 63° Northeast 448 516 39,000  Level Indianapolis Center
01:15PM 40.4567 -84.0022 63° Northeast 452 520 39,000  Level Indianapolis Center
01:16PM 40.5222 -83.8300 63° Northeast 447 514 39,000  Level Indianapolis Center
01:17PM 40.5797 -83.6811 63° Northeast 451 519 39,000  Level Indianapolis Center
01:18PM 40.6358 -83.5336 63° Northeast 446 513 39,000  Level Indianapolis Center
01:19PM 40.6556 -83.4817 63° Northeast 442 509 39,000  Level Cleveland Center
01:20PM 40.7136 -83.3333 63° Northeast 442 509 39,000  Level Cleveland Center
01:21PM 40.7669 -83.1875 64° Northeast 442 509 39,000  Level Cleveland Center
01:22PM 40.8244 -83.0361 63° Northeast 442 509 39,000  Level Cleveland Center
01:23PM 40.8822 -82.8764 64° Northeast 442 509 39,000  Level Cleveland Center
01:24PM 40.9392 -82.7272 63° Northeast 447 514 39,000  Level Cleveland Center
01:25PM 40.9919 -82.5775 65° Northeast 447 514 39,000  Level Cleveland Center
01:26PM 41.0467 -82.4278 64° Northeast 447 514 39,000  Level Cleveland Center
01:27PM 41.0967 -82.2914 64° Northeast 447 514 39,000  Level Cleveland Center
01:28PM 41.1508 -82.1411 64° Northeast 447 514 39,000  Level Cleveland Center
01:29PM 41.2158 -81.9689 63° Northeast 453 521 39,000  Level Cleveland Center
01:30PM 41.2631 -81.8344 65° Northeast 458 527 39,000  Level Cleveland Center
01:31PM 41.3169 -81.6806 65° Northeast 458 527 39,000  Level Cleveland Center
01:32PM 41.3725 -81.5239 65° Northeast 458 527 39,000  Level Cleveland Center
01:33PM 41.4300 -81.3614 65° Northeast 451 519 39,000  Level Cleveland Center
01:34PM 41.4850 -81.2011 65° Northeast 458 527 39,000  Level Cleveland Center
01:35PM 41.5336 -81.0631 65° Northeast 458 527 39,000  Level Cleveland Center
01:36PM 41.5864 -80.9108 65° Northeast 458 527 39,000  Level Cleveland Center
01:37PM 41.6408 -80.7525 65° Northeast 458 527 39,000  Level Cleveland Center
01:38PM 41.6953 -80.5969 65° Northeast 463 533 39,000  Level Cleveland Center
01:39PM 41.7494 -80.4411 65° Northeast 463 533 39,000  Level Cleveland Center
01:40PM 41.8011 -80.2794 67° East 463 533 39,000  Level Cleveland Center
01:41PM 41.8611 -80.1119 64° Northeast 463 533 39,000  Level Cleveland Center
01:42PM 41.9125 -79.9525 67° East 463 533 39,000  Level Cleveland Center
01:43PM 41.9678 -79.7956 65° Northeast 458 527 39,000  Level Cleveland Center
01:44PM 42.0206 -79.6356 66° East 463 533 39,000  Level Cleveland Center
01:45PM 42.0736 -79.4783 66° East 463 533 39,000  Level Cleveland Center
01:46PM 42.1239 -79.3178 67° East 463 533 39,000  Level Cleveland Center
01:47PM 42.1764 -79.1569 66° East 463 533 39,000  Level Cleveland Center
01:48PM 42.2053 -78.9881 77° East 463 533 39,000  Level Cleveland Center
01:49PM 42.2300 -78.8136 79° East 458 527 39,000  Level Cleveland Center
01:50PM 42.2519 -78.6392 80° East 463 533 39,000  Level Cleveland Center
01:51PM 42.2719 -78.4675 81° East 468 539 39,000  Level Cleveland Center
01:52PM 42.2936 -78.2956 80° East 468 539 39,000  Level Cleveland Center
01:53PM 42.3150 -78.1206 81° East 468 539 39,000  Level Cleveland Center
01:54PM 42.3364 -77.9456 81° East 468 539 39,000  Level Cleveland Center
01:55PM 42.3572 -77.7733 81° East 468 539 39,000  Level Cleveland Center
01:56PM 42.3758 -77.5981 82° East 468 539 39,000  Level Cleveland Center
01:57PM 42.3961 -77.4228 81° East 468 539 39,000  Level Cleveland Center
01:58PM 42.4258 -77.1439 82° East 470 541 39,000  Level Boston Center
01:59PM 42.4450 -76.9847 81° East 476 548 39,000  Level Boston Center
02:00PM 42.4644 -76.8061 82° East 476 548 39,000  Level Boston Center
02:01PM 42.4814 -76.6325 82° East 476 548 39,000  Level Boston Center
02:02PM 42.5022 -76.4564 81° East 476 548 39,000  Level Boston Center
02:03PM 42.5208 -76.2800 82° East 476 548 39,000  Level Boston Center
02:04PM 42.5392 -76.1064 82° East 476 548 39,000  Level Boston Center
02:05PM 42.5553 -75.9242 83° East 476 548 39,000  Level Boston Center
02:06PM 42.5731 -75.7503 82° East 476 548 39,000 -60 Level Boston Center
02:07PM 42.5906 -75.5736 82° East 476 548 38,900 -1,020 Descending Boston Center
02:08PM 42.6078 -75.3967 82° East 481 554 37,000 -2,400 Descending Boston Center
02:09PM 42.6250 -75.2083 83° East 481 554 34,100 -2,760 Descending Boston Center
02:10PM 42.6419 -75.0311 83° East 481 554 31,500 -2,520 Descending Boston Center
02:11PM 42.6583 -74.8483 83° East 481 554 29,100 -1,260 Descending Boston Center
02:12PM 42.6750 -74.6486 83° East 486 559 29,000 -60 Descending Boston Center
02:13PM 42.6783 -74.4708 88° East 474 545 29,000  Level Boston Center
02:14PM 42.6667 -74.2925 95° East 474 545 29,000  Level Boston Center
02:15PM 42.6569 -74.1114 94° East 480 552 29,000 -600 Level Boston Center
02:16PM 42.6492 -73.9306 93° East 480 552 27,900 -1,440 Descending Boston Center
02:17PM 42.6389 -73.7525 94° East 475 547 26,200 -1,740 Descending Boston Center
02:18PM 42.6322 -73.5858 93° East 469 540 24,400 -1,800 Descending Boston Center
02:19PM 42.6233 -73.4192 94° East 450 518 22,700 -1,500 Descending Boston Center
02:20PM 42.6142 -73.2753 95° East 441 507 21,500 -900 Descending Boston Center
02:21PM 42.6047 -73.1114 94° East 435 501 21,000 -300 Descending Boston Center
02:22PM 42.5931 -72.9281 95° East 438 504 21,000 -600 Level Boston Center
02:23PM 42.5853 -72.7756 94° East 427 491 19,800 -1,320 Descending Boston Center
02:24PM 42.5753 -72.6572 97° East 399 459 18,400 -1,320 Descending Boston Center
02:25PM 42.5650 -72.4992 95° East 394 453 17,200 -1,800 Descending Boston Center
02:26PM 42.5567 -72.3556 94° East 387 445 14,900 -2,400 Descending Boston Center
02:27PM 42.5461 -72.2092 96° East 373 429 12,400 -2,520 Descending Boston Center
02:28PM 42.5375 -72.0936 96° East 323 372 9,900 -2,160 Descending Boston Center
02:29PM 42.5308 -71.9808 95° East 300 345 8,100 -1,680 Descending Boston Center
02:30PM 42.5219 -71.8850 97° East 279 321 6,600 -960 Descending Boston Center
02:31PM 42.5319 -71.8033 81° East 229 264 6,200 -600 Descending Boston Center
02:32PM 42.5481 -71.7214 75° East 215 247 5,500 -660 Descending Boston Center
02:33PM 42.5664 -71.6394 73° East 222 255 4,900 -600 Descending Boston Center
02:35PM 42.5833 -71.5500 76° East 217 250 4,200 -420 Descending KA90
02:36PM 42.6167 -71.4667 61° Northeast 202 232 4,000 -240 Descending KA90
02:36PM 42.6253 -71.4272 73° East 184 212 3,800 -540 Descending Boston Center
02:37PM 42.6267 -71.3678 88° East 164 189 3,100 -600 Descending Boston Center
02:38PM 42.6167 -71.3667 175° South 190 219 3,100  Level KA90
02:39PM 42.5667 -71.3333 154° Southeast 186 214 3,100 -60 Level KA90
02:40PM 42.5167 -71.3500 194° South 189 217 3,000  Descending KA90
02:41PM 42.4667 -71.3833 206° Southwest 166 191 3,100 -300 Climbing KA90
02:42PM 42.4333 -71.3833 180° South 165 190 2,500 -900 Descending KA90
02:43PM 42.4333 -71.3333 90° East 156 180 1,400 -960 Descending KA90
02:44PM 42.4500 -71.3000 56° Northeast 121 139 600 9,840 Descending KA90
02:45PM 42.4672 -71.2553 62° Northeast 88 101 29,000 10,140 Climbing Boston Center
02:46PM 42.4772 -71.2269 64° Northeast 88 101 29,000  Level Boston Center